ADDS METAR Data INFO
IDs: Format: Raw Decoded Include TAF

Data at: 0715 UTC 24 Jun 2018

KTVI 240655Z AUTO 26003KT 10SM CLR 25/23 A2999 RMK AO2
KTVI 240635Z AUTO 27004KT 10SM CLR 26/23 A2999 RMK AO2
KTVI 240615Z AUTO 26005KT 10SM CLR 26/24 A2999 RMK AO2
KTVI 240555Z AUTO 25004KT 10SM CLR 26/24 A2999 RMK AO2
KTVI 240535Z AUTO 25004KT 10SM CLR 26/24 A3001 RMK AO2
KTVI 240515Z AUTO 24004KT 10SM CLR 26/25 A3000 RMK AO2
KTVI 240455Z AUTO 21005KT 10SM CLR 26/25 A3001 RMK AO2
KTVI 240435Z AUTO 22003KT 10SM CLR 26/25 A3000 RMK AO2
KTVI 240415Z AUTO 23004KT 10SM CLR 26/25 A3000 RMK AO2
KTVI 240355Z AUTO 22003KT 10SM CLR 26/25 A3001 RMK AO2
KTVI 240335Z AUTO 19004KT 10SM CLR 26/25 A3000 RMK AO2
KTVI 240315Z AUTO 18004KT 10SM CLR 27/25 A2999 RMK AO2
KTVI 240255Z AUTO 19004KT 10SM CLR 27/24 A2999 RMK AO2
KTVI 240235Z AUTO 18005KT 10SM CLR 27/24 A2998 RMK AO2
KTVI 240215Z AUTO 19005KT 10SM CLR 27/24 A2999 RMK AO2
KTVI 240155Z AUTO 17005KT 10SM CLR 27/23 A2998 RMK AO2
KTVI 240135Z AUTO 19004KT 10SM CLR 27/23 A2998 RMK AO2
KTVI 240115Z AUTO 00000KT 10SM CLR 27/24 A2997 RMK AO2
KTVI 240055Z AUTO 00000KT 10SM CLR 28/23 A2997 RMK AO2
KTVI 240035Z AUTO 00000KT 10SM CLR 28/24 A2996 RMK AO2
KTVI 240015Z AUTO 00000KT 7SM CLR 30/22 A2996 RMK AO2
KTVI 232355Z AUTO 23003KT 10SM CLR 31/22 A2996 RMK AO2
KTVI 232335Z AUTO 25003KT 10SM CLR 32/21 A2996 RMK AO2
KTVI 232315Z AUTO 28005KT 10SM CLR 32/21 A2995 RMK AO2
KTVI 232255Z AUTO 25005KT 10SM CLR 33/21 A2996 RMK AO2
KTVI 232235Z AUTO 26005KT 10SM CLR 33/21 A2995 RMK AO2
KTVI 232215Z AUTO 24003KT 10SM CLR 33/20 A2995 RMK AO2
KTVI 232155Z AUTO 31005KT 7SM CLR 33/21 A2995 RMK AO2
KTVI 232135Z AUTO 29004KT 10SM CLR 33/21 A2995 RMK AO2
KTVI 232115Z AUTO 30005KT 10SM CLR 33/21 A2995 RMK AO2
KTVI 232055Z AUTO 24006KT 10SM SCT050 SCT065 33/21 A2996 RMK AO2
KTVI 232035Z AUTO 25007KT 10SM SCT050 33/21 A2996 RMK AO2
KTVI 232015Z AUTO 33007KT 10SM BKN050 SCT060 33/21 A2997 RMK AO2
KTVI 231955Z AUTO 28004KT 10SM SCT050 BKN060 32/21 A2998 RMK AO2
KTVI 231935Z AUTO 24008KT 10SM SCT048 33/21 A2998 RMK AO2
KTVI 231915Z AUTO 28007KT 10SM SCT050 33/21 A2998 RMK AO2
KTVI 231855Z AUTO 28003KT 10SM CLR 33/21 A2999 RMK AO2
KTVI 231835Z AUTO 26007G14KT 240V300 10SM CLR 32/21 A3000 RMK AO2
KTVI 231815Z AUTO 25009G15KT 10SM SCT046 32/20 A3000 RMK AO2
KTVI 231755Z AUTO 27007KT 10SM SCT043 SCT050 32/21 A3001 RMK AO2
KTVI 231735Z AUTO 28007KT 250V320 10SM BKN041 BKN050 31/21 A3002 RMK AO2
KTVI 231715Z AUTO 29009KT 10SM SCT041 32/22 A3002 RMK AO2
KTVI 231655Z AUTO 28008G15KT 240V310 10SM SCT041 31/21 A3002 RMK AO2
KTVI 231635Z AUTO 29009KT 10SM SCT041 BKN048 31/21 A3003 RMK AO2
KTVI 231615Z AUTO 28007KT 240V300 10SM SCT036 SCT042 SCT049 31/22 A3003 RMK AO2
KTVI 231555Z AUTO 25005KT 10SM SCT036 SCT041 31/22 A3003 RMK AO2
KTVI 231535Z AUTO 30008KT 10SM SCT030 BKN038 30/22 A3003 RMK AO2
KTVI 231515Z AUTO 28007KT 10SM BKN030 BKN036 29/23 A3002 RMK AO2
KTVI 231455Z AUTO 29006KT 10SM BKN030 30/23 A3002 RMK AO2
KTVI 231435Z AUTO 27007KT 240V300 10SM SCT026 SCT031 29/23 A3001 RMK AO2
KTVI 231415Z AUTO 26007G14KT 10SM SCT026 28/22 A3001 RMK AO2
KTVI 231355Z AUTO 28005KT 10SM SCT022 28/23 A3001 RMK AO2
KTVI 231335Z AUTO 27007KT 10SM CLR 28/23 A3001 RMK AO2
KTVI 231315Z AUTO 26006KT 10SM CLR 27/23 A3001 RMK AO2
KTVI 231255Z AUTO 26009KT 10SM CLR 27/23 A3001 RMK AO2
KTVI 231235Z AUTO 28007KT 10SM CLR 26/23 A3000 RMK AO2
KTVI 231215Z AUTO 26006KT 10SM CLR 26/23 A2999 RMK AO2
KTVI 231155Z AUTO 25006KT 10SM CLR 25/23 A2999 RMK AO2
KTVI 231135Z AUTO 24003KT 10SM SCT023 25/23 A2998 RMK AO2
KTVI 231115Z AUTO 26003KT 10SM SCT021 24/23 A2998 RMK AO2
KTVI 231055Z AUTO 25003KT 10SM SCT020 23/23 A2997 RMK AO2
KTVI 231035Z AUTO 23003KT 10SM SCT020 23/22 A2996 RMK AO2
KTVI 231015Z AUTO 00000KT 10SM CLR 23/22 A2996 RMK AO2
KTVI 230955Z AUTO 22004KT 10SM CLR 23/23 A2995 RMK AO2
KTVI 230935Z AUTO 23005KT 10SM CLR 23/23 A2994 RMK AO2
KTVI 230915Z AUTO 25003KT 10SM CLR 23/23 A2994 RMK AO2
KTVI 230855Z AUTO 00000KT 10SM CLR 23/22 A2994 RMK AO2
KTVI 230835Z AUTO 00000KT 10SM CLR 23/22 A2994 RMK AO2
KTVI 230815Z AUTO 00000KT 10SM CLR 23/22 A2994 RMK AO2
KTVI 230755Z AUTO 00000KT 10SM CLR 23/23 A2994 RMK AO2
KTVI 230735Z AUTO 23003KT 10SM CLR 23/23 A2993 RMK AO2
KTVI 230715Z AUTO 22005KT 10SM CLR 24/23 A2993 RMK AO2
KTVI 230655Z AUTO 23003KT 10SM CLR 24/23 A2992 RMK AO2
KTVI 230635Z AUTO 25004KT 10SM CLR 25/23 A2993 RMK AO2
KTVI 230615Z AUTO 23005KT 10SM CLR 25/23 A2993 RMK AO2
KTVI 230555Z AUTO 23006KT 10SM CLR 25/22 A2993 RMK AO2
KTVI 230535Z AUTO 23006KT 10SM CLR 25/22 A2994 RMK AO2
KTVI 230515Z AUTO 23007KT 10SM CLR 25/22 A2994 RMK AO2
KTVI 230455Z AUTO 23006KT 10SM CLR 25/22 A2994 RMK AO2
KTVI 230435Z AUTO 23007KT 10SM CLR 25/22 A2994 RMK AO2
KTVI 230415Z AUTO 23006KT 10SM CLR 25/22 A2994 RMK AO2
KTVI 230355Z AUTO 23005KT 10SM CLR 25/21 A2994 RMK AO2
KTVI 230335Z AUTO 22004KT 10SM CLR 25/22 A2994 RMK AO2
KTVI 230315Z AUTO 23005KT 10SM CLR 25/22 A2994 RMK AO2
KTVI 230255Z AUTO 24004KT 10SM CLR 26/22 A2994 RMK AO2
KTVI 230235Z AUTO 23005KT 10SM CLR 26/22 A2994 RMK AO2
KTVI 230215Z AUTO 23005KT 10SM CLR 26/22 A2993 RMK AO2
KTVI 230155Z AUTO 23005KT 10SM CLR 27/22 A2993 RMK AO2
KTVI 230135Z AUTO 23004KT 10SM CLR 27/22 A2992 RMK AO2
KTVI 230115Z AUTO 23004KT 10SM CLR 27/22 A2992 RMK AO2
KTVI 230055Z AUTO 22004KT 10SM CLR 27/22 A2991 RMK AO2
KTVI 230035Z AUTO 22004KT 10SM CLR 28/22 A2990 RMK AO2
KTVI 230015Z AUTO 22004KT 10SM CLR 29/22 A2989 RMK AO2
KTVI 222355Z AUTO 22006KT 10SM CLR 30/22 A2989 RMK AO2
KTVI 222335Z AUTO 24006KT 10SM CLR 31/22 A2989 RMK AO2
KTVI 222315Z AUTO 23007KT 10SM CLR 31/22 A2988 RMK AO2
KTVI 222255Z AUTO 23006KT 10SM CLR 31/23 A2988 RMK AO2
KTVI 222235Z AUTO 23009KT 10SM CLR 31/23 A2988 RMK AO2
KTVI 222215Z AUTO 22006KT 10SM CLR 31/23 A2988 RMK AO2
KTVI 222155Z AUTO 22008KT 10SM SCT034 SCT041 31/23 A2989 RMK AO2
KTVI 222135Z AUTO 23012G16KT 10SM SCT028 BKN035 BKN043 30/24 A2990 RMK AO2
KTVI 222115Z AUTO 23010G16KT 7SM SCT030 BKN038 BKN048 30/24 A2990 RMK AO2
KTVI 222055Z AUTO 20008KT 10SM BKN030 BKN036 31/25 A2990 RMK AO2
KTVI 222035Z AUTO 23009KT 10SM BKN030 OVC036 30/24 A2991 RMK AO2
KTVI 222015Z AUTO 21006KT 10SM BKN028 BKN036 31/24 A2992 RMK AO2
KTVI 221955Z AUTO 25008KT 10SM SCT028 31/24 A2993 RMK AO2
KTVI 221935Z AUTO 27008KT 10SM CLR 30/23 A2994 RMK AO2